Time;durP1;ratioP1;P1;durP2;ratioP2;P2;SDS_P1;SDS_P2;PMS_P1;PMS_P2;Temp;Humidity;BMP_temperature;BMP_pressure;BME280_temperature;BME280_humidity;BME280_pressure;Samples;Min_cycle;Max_cycle;Signal;HPM_P1;HPM_P2
2022/06/20 00:01:21;;;;;;;4.30;2.63;;;;;;;19.36;nan;95326.91;6275786;22;20516;-83
2022/06/20 00:03:48;;;;;;;4.95;2.72;;;;;;;19.38;nan;95313.91;6277181;22;20012;-83
2022/06/20 00:06:20;;;;;;;4.22;2.63;;;;;;;18.85;nan;95250.00;6276449;22;20430;-83
2022/06/20 00:08:45;;;;;;;2.83;2.30;;;;;;;18.75;nan;95243.13;6277797;22;20004;-83
2022/06/20 00:11:17;;;;;;;6.10;2.22;;;;;;;19.17;nan;95299.66;6276652;22;20003;-84
2022/06/20 00:13:46;;;;;;;;;;;;;;;19.60;nan;95358.63;6278542;22;20016;-83
2022/06/20 00:16:15;;;;;;;11.18;2.78;;;;;;;19.40;nan;95327.84;6274782;22;19968;-83
2022/06/20 00:18:41;;;;;;;5.22;2.92;;;;;;;18.99;nan;95264.03;6274941;22;20446;-83
2022/06/20 00:21:11;;;;;;;5.18;2.40;;;;;;;19.34;nan;95339.09;6274627;22;20160;-83
2022/06/20 00:23:37;;;;;;;4.03;3.00;;;;;;;18.58;nan;95280.78;6274362;22;20004;-83
2022/06/20 00:26:02;;;;;;;3.67;2.42;;;;;;;18.73;nan;95271.41;6274858;22;20183;-83
2022/06/20 00:28:28;;;;;;;7.72;2.80;;;;;;;19.34;nan;95352.53;6274773;22;20410;-84
2022/06/20 00:30:53;;;;;;;4.72;2.80;;;;;;;19.24;nan;95345.63;6300181;22;20131;-84
2022/06/20 00:33:19;;;;;;;6.28;2.92;;;;;;;18.98;nan;95318.09;6274670;22;20095;-84
2022/06/20 00:35:44;;;;;;;7.60;2.88;;;;;;;18.85;nan;95274.19;6275963;22;20004;-83
2022/06/20 00:38:17;;;;;;;6.00;2.92;;;;;;;18.62;nan;95270.16;6275959;22;20024;-84
2022/06/20 00:40:48;;;;;;;5.35;2.70;;;;;;;18.67;nan;95291.50;6274807;22;20004;-84
2022/06/20 00:43:20;;;;;;;12.10;2.97;;;;;;;18.25;nan;95229.50;6276692;22;20080;-84
2022/06/20 00:45:47;;;;;;;4.75;2.72;;;;;;;18.51;nan;95272.41;6274368;22;20004;-83
2022/06/20 00:48:29;;;;;;;4.97;2.63;;;;;;;18.65;nan;95299.09;6276280;22;20459;-83
2022/06/20 00:50:57;;;;;;;;;;;;;;;19.00;nan;95343.50;6276610;22;20345;-83
2022/06/20 00:53:46;;;;;;;6.57;2.78;;;;;;;18.66;nan;95276.50;6276338;22;19982;-84
2022/06/20 00:56:18;;;;;;;3.45;2.75;;;;;;;19.14;nan;95340.63;6274422;22;20527;-84
2022/06/20 00:58:49;;;;;;;6.15;2.85;;;;;;;18.03;nan;95189.47;6275748;22;20011;-84
2022/06/20 01:01:17;;;;;;;3.72;2.70;;;;;;;18.25;nan;95248.28;6275938;22;20400;-84
2022/06/20 01:03:52;;;;;;;5.97;3.05;;;;;;;18.96;nan;95352.56;6275813;22;20038;-85
2022/06/20 01:06:28;;;;;;;12.70;3.20;;;;;;;18.68;nan;95347.59;6275085;22;20034;-84
2022/06/20 01:08:58;;;;;;;7.05;3.10;;;;;;;18.42;nan;95330.72;6275617;22;20563;-84
2022/06/20 01:11:31;;;;;;;4.22;2.70;;;;;;;18.08;nan;95285.91;6275551;22;20084;-84
2022/06/20 01:13:56;;;;;;;6.07;2.80;;;;;;;18.32;nan;95288.88;6275842;22;20052;-84
2022/06/20 01:16:29;;;;;;;5.50;2.80;;;;;;;18.40;nan;95322.97;6276252;22;20411;-85
2022/06/20 01:19:00;;;;;;;6.60;2.60;;;;;;;18.56;nan;95323.28;6274045;22;20298;-83
2022/06/20 01:21:32;;;;;;;8.15;2.92;;;;;;;18.54;nan;95328.13;6275913;22;20011;-83
2022/06/20 01:24:23;;;;;;;7.05;2.92;;;;;;;18.54;nan;95330.06;6275644;22;20003;-84
2022/06/20 01:26:48;;;;;;;4.10;2.63;;;;;;;18.42;nan;95319.97;6274988;22;20082;-84
2022/06/20 01:29:14;;;;;;;5.20;3.30;;;;;;;17.92;nan;95248.06;6274793;22;20092;-84
2022/06/20 01:31:45;;;;;;;4.30;2.88;;;;;;;18.03;nan;95278.81;6273496;22;20008;-83
2022/06/20 01:34:14;;;;;;;5.45;3.00;;;;;;;17.93;nan;95270.28;6272889;22;20434;-83
2022/06/20 01:39:26;;;;;;;4.40;2.72;;;;;;;18.01;nan;95288.28;6275056;22;20338;-84
2022/06/20 01:44:41;;;;;;;6.30;2.63;;;;;;;18.06;nan;95290.81;6275041;22;20078;-84
2022/06/20 01:47:06;;;;;;;16.65;3.47;;;;;;;18.45;nan;95330.09;6273390;22;20004;-83
2022/06/20 01:49:34;;;;;;;12.95;3.58;;;;;;;18.29;nan;95297.56;6272757;22;20008;-83
2022/06/20 01:52:13;;;;;;;8.18;3.03;;;;;;;18.52;nan;95331.16;6272686;22;20033;-83
2022/06/20 01:54:44;;;;;;;9.55;3.00;;;;;;;17.98;nan;95256.72;6273056;22;20012;-83
2022/06/20 01:57:12;;;;;;;11.65;3.30;;;;;;;18.13;nan;95278.50;6272674;22;20035;-83
2022/06/20 02:00:03;;;;;;;8.05;3.35;;;;;;;18.36;nan;95332.78;6272883;22;20552;-83
2022/06/20 02:02:33;;;;;;;10.40;3.75;;;;;;;18.36;nan;95338.16;6274529;22;20055;-83
2022/06/20 02:05:00;;;;;;;8.57;3.40;;;;;;;17.48;nan;95203.56;6274727;22;20001;-83
2022/06/20 02:07:26;;;;;;;4.35;3.20;;;;;;;18.18;nan;95338.47;6273179;22;20007;-83
2022/06/20 02:09:51;;;;;;;9.45;3.00;;;;;;;18.00;nan;95317.00;6272382;22;20465;-83
2022/06/20 02:12:18;;;;;;;5.60;3.25;;;;;;;17.55;nan;95244.09;6272682;22;20008;-84
2022/06/20 02:14:51;;;;;;;11.88;3.60;;;;;;;17.44;nan;95228.63;6274561;22;20008;-83
2022/06/20 02:17:22;;;;;;;8.60;3.05;;;;;;;17.10;nan;95187.28;6272465;22;20012;-83
2022/06/20 02:19:51;;;;;;;9.73;3.03;;;;;;;18.09;nan;95331.22;6272574;22;20439;-83
2022/06/20 02:22:19;;;;;;;6.50;3.40;;;;;;;18.15;nan;95329.19;6273066;22;20408;-83
2022/06/20 02:24:49;;;;;;;5.38;2.72;;;;;;;18.03;nan;95320.97;6272633;22;20441;-83
2022/06/20 02:27:26;;;;;;;8.88;3.22;;;;;;;17.46;nan;95231.81;6273127;22;20300;-83
2022/06/20 02:29:52;;;;;;;10.90;3.72;;;;;;;17.93;nan;95307.84;6273099;22;20007;-84
2022/06/20 02:32:25;;;;;;;5.10;3.15;;;;;;;17.22;nan;95198.19;6273127;22;20075;-84
2022/06/20 02:34:51;;;;;;;11.43;3.55;;;;;;;18.06;nan;95331.88;6272808;22;20004;-83
2022/06/20 02:37:23;;;;;;;12.32;3.58;;;;;;;16.96;nan;95202.72;6274449;22;20547;-83
2022/06/20 02:39:52;;;;;;;9.35;3.60;;;;;;;17.24;nan;95273.69;6272980;22;20358;-83
2022/06/20 02:42:26;;;;;;;11.68;4.47;;;;;;;17.16;nan;95238.88;6272614;22;20012;-83
2022/06/20 02:44:53;;;;;;;16.58;4.15;;;;;;;17.31;nan;95282.09;6274631;22;20000;-83
2022/06/20 02:47:21;;;;;;;10.80;3.83;;;;;;;17.32;nan;95274.81;6272755;22;20000;-83
2022/06/20 02:49:48;;;;;;;13.40;3.65;;;;;;;17.42;nan;95274.53;6273065;22;20010;-83
2022/06/20 02:52:26;;;;;;;7.60;4.03;;;;;;;17.29;nan;95270.09;6274309;22;20012;-84
2022/06/20 02:54:53;;;;;;;6.75;3.75;;;;;;;17.54;nan;95322.97;6274004;22;20023;-84
2022/06/20 02:57:35;;;;;;;5.25;3.63;;;;;;;16.93;nan;95241.66;6274036;22;20008;-83
2022/06/20 03:00:04;;;;;;;3.75;2.97;;;;;;;17.48;nan;95321.53;6272967;22;20004;-83
2022/06/20 03:02:35;;;;;;;9.35;4.30;;;;;;;17.31;nan;95308.09;6272861;22;20110;-84
2022/06/20 03:05:01;;;;;;;7.60;3.45;;;;;;;17.36;nan;95310.63;6272349;22;20018;-84
2022/06/20 03:07:32;;;;;;;7.70;3.70;;;;;;;17.60;nan;95326.28;6274298;22;20442;-84
2022/06/20 03:10:25;;;;;;;13.50;4.15;;;;;;;16.59;nan;95204.03;6272667;22;20065;-84
2022/06/20 03:12:53;;;;;;;9.57;4.60;;;;;;;17.21;nan;95281.59;6271132;22;20008;-83
2022/06/20 03:15:18;;;;;;;10.88;3.90;;;;;;;16.59;nan;95175.38;6272629;22;20447;-83
2022/06/20 03:17:47;;;;;;;9.13;3.17;;;;;;;16.65;nan;95184.06;6272372;22;20015;-83
2022/06/20 03:20:15;;;;;;;9.85;3.47;;;;;;;17.37;nan;95269.31;6272220;22;20008;-83
2022/06/20 03:22:47;;;;;;;5.55;3.30;;;;;;;17.17;nan;95238.53;6272928;22;20028;-83
2022/06/20 03:25:14;;;;;;;8.45;3.28;;;;;;;17.66;nan;95314.31;6272362;22;20090;-83
2022/06/20 03:27:42;;;;;;;4.53;2.75;;;;;;;17.69;nan;95322.56;6273058;22;20358;-83
2022/06/20 03:30:26;;;;;;;13.90;3.63;;;;;;;17.00;nan;95211.72;6272440;22;20007;-83
2022/06/20 03:32:52;;;;;;;9.75;3.53;;;;;;;17.29;nan;95254.00;6274655;22;20004;-83
2022/06/20 03:35:17;;;;;;;5.50;3.60;;;;;;;17.73;nan;95312.75;6273884;22;20516;-83
2022/06/20 03:37:43;;;;;;;4.82;2.72;;;;;;;17.06;nan;95197.06;6274085;22;20004;-83
2022/06/20 03:40:09;;;;;;;6.25;2.95;;;;;;;17.13;nan;95207.31;6274251;22;20023;-83
2022/06/20 03:42:35;;;;;;;4.95;3.28;;;;;;;17.60;nan;95278.00;6274221;22;20011;-83
2022/06/20 03:45:05;;;;;;;10.98;3.30;;;;;;;17.77;nan;95317.50;6274886;22;20007;-84
2022/06/20 03:47:37;;;;;;;6.38;2.90;;;;;;;17.41;nan;95272.16;6274947;22;20003;-84
2022/06/20 03:50:07;;;;;;;7.97;3.45;;;;;;;17.82;nan;95334.22;6274329;22;20008;-83
2022/06/20 03:52:46;;;;;;;9.02;2.97;;;;;;;17.96;nan;95321.44;6274070;22;20304;-83
2022/06/20 03:55:11;;;;;;;3.38;2.70;;;;;;;17.95;nan;95335.94;6276211;22;20004;-83
2022/06/20 03:58:30;;;;;;;8.13;3.47;;;;;;;17.94;nan;95325.53;6274122;22;20011;-83
2022/06/20 04:00:59;;;;;;;7.18;3.08;;;;;;;18.01;nan;95337.38;6213513;22;20015;-83
2022/06/20 04:03:30;;;;;;;6.93;3.05;;;;;;;17.26;nan;95238.53;6273608;22;20008;-83
2022/06/20 04:06:09;;;;;;;6.28;2.90;;;;;;;17.97;nan;95330.28;6274035;22;20045;-83
2022/06/20 04:11:52;;;;;;;6.88;3.83;;;;;;;17.47;nan;95244.88;6275276;22;20159;-83
2022/06/20 04:14:31;;;;;;;6.07;3.53;;;;;;;17.55;nan;95257.50;6273099;22;20118;-84
2022/06/20 04:18:27;;;;;;;9.70;3.60;;;;;;;16.25;nan;95044.13;6272871;22;20059;-84
2022/06/20 04:19:56;;;;;;;9.90;3.85;;;;;;;17.91;nan;95299.34;6268188;22;20015;-84
2022/06/20 04:22:31;;;;;;;10.65;3.67;;;;;;;17.19;nan;95190.00;6272496;22;20007;-84
2022/06/20 04:25:15;;;;;;;8.30;3.65;;;;;;;18.13;nan;95315.28;6268915;22;20034;-83
2022/06/20 04:27:53;;;;;;;8.07;4.10;;;;;;;17.59;nan;95228.97;6271022;22;20012;-83
2022/06/20 04:30:34;;;;;;;8.68;4.07;;;;;;;18.13;nan;95316.06;6291294;22;20015;-84
2022/06/20 04:33:20;;;;;;;15.73;4.30;;;;;;;17.66;nan;95233.88;6274610;22;19999;-84
2022/06/20 04:36:20;;;;;;;6.47;3.55;;;;;;;18.26;nan;95321.56;6270651;22;20045;-83
2022/06/20 04:38:57;;;;;;;6.95;3.67;;;;;;;17.44;nan;95189.22;6257091;22;20019;-84
2022/06/20 04:41:40;;;;;;;10.10;3.53;;;;;;;18.37;nan;95320.13;6272039;22;20077;-84
2022/06/20 04:44:17;;;;;;;9.75;3.95;;;;;;;17.79;nan;95229.44;6266530;22;20008;-84
2022/06/20 04:47:02;;;;;;;7.22;3.70;;;;;;;18.37;nan;95296.78;6263487;22;20371;-84
2022/06/20 04:49:28;;;;;;;6.70;4.13;;;;;;;18.00;nan;95236.50;6260310;22;20017;-84
2022/06/20 04:51:53;;;;;;;11.00;4.45;;;;;;;17.68;nan;95169.97;6264942;22;20090;-84
2022/06/20 04:54:21;;;;;;;7.50;3.88;;;;;;;18.23;nan;95273.91;6266608;22;20099;-84
2022/06/20 04:56:53;;;;;;;9.18;4.35;;;;;;;17.90;nan;95220.75;6266107;22;20462;-84
2022/06/20 04:59:24;;;;;;;6.70;4.15;;;;;;;17.74;nan;95184.78;6265159;22;20370;-84
2022/06/20 05:01:50;;;;;;;6.43;4.50;;;;;;;17.97;nan;95201.47;6265489;22;20015;-84
2022/06/20 05:04:27;;;;;;;9.65;4.60;;;;;;;17.99;nan;95218.06;6267790;22;20261;-85
2022/06/20 05:06:55;;;;;;;18.83;6.82;;;;;;;16.93;nan;95048.00;6255591;22;20015;-85
2022/06/20 05:09:46;;;;;;;12.55;5.10;;;;;;;18.52;nan;95282.03;6263143;22;20017;-84
2022/06/20 05:12:28;;;;;;;11.00;5.93;;;;;;;17.91;nan;95183.97;6207952;22;20018;-84
2022/06/20 05:15:03;;;;;;;10.48;5.80;;;;;;;18.56;nan;95307.16;6265456;22;20538;-85
2022/06/20 05:17:31;;;;;;;8.65;4.95;;;;;;;17.84;nan;95178.31;6271202;22;20098;-84
2022/06/20 05:20:08;;;;;;;15.88;5.68;;;;;;;18.25;nan;95242.94;6264550;22;20402;-84
2022/06/20 05:22:41;;;;;;;14.05;5.82;;;;;;;16.43;nan;94976.16;6261240;22;20030;-83
2022/06/20 05:25:11;;;;;;;16.30;5.63;;;;;;;17.84;nan;95215.88;6258338;22;20126;-84
2022/06/20 05:27:55;;;;;;;15.98;6.07;;;;;;;17.95;nan;95204.47;6263435;22;20074;-84
2022/06/20 05:30:25;;;;;;;19.42;6.82;;;;;;;18.01;nan;95173.69;6255009;22;20172;-83
2022/06/20 05:33:12;;;;;;;14.45;6.10;;;;;;;18.95;nan;95300.69;6262186;22;20047;-83
2022/06/20 05:35:57;;;;;;;15.13;6.00;;;;;;;18.74;nan;95251.50;6265446;22;20117;-84
2022/06/20 05:38:39;;;;;;;11.80;5.60;;;;;;;18.97;nan;95303.88;6263884;22;20019;-84
2022/06/20 05:41:07;;;;;;;12.30;5.90;;;;;;;19.05;nan;95307.63;6257313;22;20023;-84
2022/06/20 05:43:34;;;;;;;14.07;5.85;;;;;;;17.69;nan;95075.00;6265512;22;20029;-84
2022/06/20 05:46:06;;;;;;;18.17;6.38;;;;;;;18.80;nan;95252.88;6262298;22;20011;-84
2022/06/20 05:48:39;;;;;;;21.58;7.40;;;;;;;18.01;nan;95127.28;6259591;22;20019;-83
2022/06/20 05:51:08;;;;;;;26.27;6.95;;;;;;;19.03;nan;95267.63;6261039;22;20039;-83
2022/06/20 05:53:40;;;;;;;19.90;6.70;;;;;;;19.16;nan;95290.00;6257737;22;20095;-83
2022/06/20 05:56:17;;;;;;;24.75;7.18;;;;;;;19.01;nan;95258.31;6259973;22;20127;-84
2022/06/20 05:58:45;;;;;;;16.27;6.93;;;;;;;19.07;nan;95238.97;6262068;22;20012;-83
2022/06/20 06:01:16;;;;;;;16.20;6.93;;;;;;;19.31;nan;95254.47;6260518;22;20007;-84
2022/06/20 06:03:48;;;;;;;;;;;;;;;19.40;nan;95300.16;6264390;22;20445;-85
2022/06/20 06:06:23;;;;;;;17.33;6.45;;;;;;;19.16;nan;95261.22;6259523;22;19915;-84
2022/06/20 06:08:48;;;;;;;17.17;5.28;;;;;;;19.54;nan;95298.03;6257977;22;20035;-84
2022/06/20 06:11:23;;;;;;;15.30;5.85;;;;;;;19.58;nan;95294.38;6259042;22;20035;-85
2022/06/20 06:13:57;;;;;;;21.10;5.63;;;;;;;19.27;nan;95237.44;6260638;22;20340;-84
2022/06/20 06:16:50;;;;;;;11.75;5.10;;;;;;;19.34;nan;95228.84;6261157;22;20015;-84
2022/06/20 06:19:25;;;;;;;14.05;4.88;;;;;;;19.56;nan;95285.84;6261335;22;20029;-85
2022/06/20 06:21:53;;;;;;;11.30;4.85;;;;;;;19.35;nan;95231.22;6257731;22;20003;-84
2022/06/20 06:24:22;;;;;;;15.93;6.07;;;;;;;19.32;nan;95204.97;6257026;22;20015;-84
2022/06/20 06:26:50;;;;;;;17.63;5.13;;;;;;;19.31;nan;95192.63;6260562;22;20015;-84
2022/06/20 06:29:32;;;;;;;9.88;4.45;;;;;;;19.99;nan;95282.00;6283685;22;20599;-84
2022/06/20 06:32:07;;;;;;;11.35;4.50;;;;;;;19.78;nan;95249.72;6264829;22;20004;-84
2022/06/20 06:34:44;;;;;;;10.20;5.05;;;;;;;19.60;nan;95197.22;6264745;22;20019;-83
2022/06/20 06:37:19;;;;;;;13.73;4.28;;;;;;;19.81;nan;95221.38;6260597;22;20388;-84
2022/06/20 06:40:14;;;;;;;7.63;3.42;;;;;;;20.18;nan;95268.06;6259200;22;20107;-83
2022/06/20 06:42:41;;;;;;;8.95;3.67;;;;;;;19.77;nan;95215.06;6255722;22;20039;-84
2022/06/20 06:45:08;;;;;;;6.75;3.25;;;;;;;19.99;nan;95222.78;6259627;22;20014;-83
2022/06/20 06:47:40;;;;;;;7.70;3.42;;;;;;;19.99;nan;95201.25;6265824;22;20015;-83
2022/06/20 06:50:31;;;;;;;9.73;3.85;;;;;;;19.49;nan;95118.03;6265088;22;20267;-83
2022/06/20 06:53:03;;;;;;;9.55;4.03;;;;;;;20.26;nan;95222.19;6290403;22;20004;-84
2022/06/20 06:55:38;;;;;;;10.75;4.60;;;;;;;20.32;nan;95250.50;6264057;22;20477;-83
2022/06/20 06:58:29;;;;;;;11.98;4.88;;;;;;;20.32;nan;95236.22;6265677;22;20008;-84
2022/06/20 07:01:11;;;;;;;10.55;4.43;;;;;;;20.41;nan;95240.44;6264272;22;20076;-84
2022/06/20 07:03:59;;;;;;;21.00;4.65;;;;;;;20.48;nan;95231.03;6259799;22;20090;-85
2022/06/20 07:06:30;;;;;;;14.60;4.22;;;;;;;20.11;nan;95187.06;6264226;22;20075;-84
2022/06/20 07:09:02;;;;;;;14.00;4.82;;;;;;;20.55;nan;95223.16;6266297;22;20015;-84
2022/06/20 07:11:31;;;;;;;12.50;4.38;;;;;;;20.67;nan;95221.25;6266869;22;20413;-84
2022/06/20 07:14:15;;;;;;;12.27;4.50;;;;;;;20.37;nan;95152.53;6265316;22;20004;-84
2022/06/20 07:16:47;;;;;;;19.58;5.18;;;;;;;20.72;nan;95198.72;6264211;22;20103;-82
2022/06/20 07:19:13;;;;;;;15.20;4.90;;;;;;;19.88;nan;95066.34;6265459;22;20015;-84
2022/06/20 07:21:41;;;;;;;18.20;4.57;;;;;;;20.30;nan;95112.69;6266749;22;20422;-83
2022/06/20 07:24:17;;;;;;;12.85;4.60;;;;;;;20.54;nan;95146.94;6289055;22;20542;-83
2022/06/20 07:26:48;;;;;;;11.65;4.70;;;;;;;21.04;nan;95203.19;6266420;22;20780;-83
2022/06/20 07:29:16;;;;;;;;;;;;;;;21.10;nan;95211.84;6266375;22;20083;-83
2022/06/20 07:31:47;;;;;;;12.82;4.45;;;;;;;20.90;nan;95181.19;6262486;22;19915;-83
2022/06/20 07:34:12;;;;;;;14.82;4.38;;;;;;;21.04;nan;95203.19;6261234;22;20435;-83
2022/06/20 07:37:02;;;;;;;19.88;5.10;;;;;;;20.06;nan;95061.53;6261763;22;20022;-84
2022/06/20 07:39:37;;;;;;;15.07;4.78;;;;;;;20.94;nan;95167.81;6257276;22;20375;-84
2022/06/20 07:42:32;;;;;;;16.25;5.25;;;;;;;21.10;nan;95177.56;6265910;22;20027;-84
2022/06/20 07:45:08;;;;;;;7.82;4.15;;;;;;;21.17;nan;95177.03;6259459;22;20011;-84
2022/06/20 07:47:37;;;;;;;17.70;4.25;;;;;;;19.23;nan;94906.63;6250793;22;20030;-83
2022/06/20 07:50:17;;;;;;;9.07;4.15;;;;;;;19.20;nan;94911.88;6261965;22;20275;-84
2022/06/20 07:52:54;;;;;;;10.27;4.20;;;;;;;20.89;nan;95166.16;6264059;22;20004;-85
2022/06/20 07:55:24;;;;;;;11.60;3.85;;;;;;;21.05;nan;95166.25;6261733;22;20011;-84
2022/06/20 07:57:59;;;;;;;10.05;4.03;;;;;;;20.90;nan;95137.28;6260735;22;20089;-83
2022/06/20 08:00:31;;;;;;;9.93;3.72;;;;;;;21.53;nan;95203.91;6257888;22;20029;-84
2022/06/20 08:03:06;;;;;;;6.93;3.10;;;;;;;21.12;nan;95134.09;6261454;22;20097;-84
2022/06/20 08:05:49;;;;;;;5.10;3.03;;;;;;;21.35;nan;95170.25;6254084;22;20094;-83
2022/06/20 08:08:14;;;;;;;6.95;3.00;;;;;;;21.62;nan;95195.66;6254022;22;20047;-84
2022/06/20 08:10:51;;;;;;;9.32;3.38;;;;;;;21.56;nan;95165.44;6261398;22;20426;-84
2022/06/20 08:13:29;;;;;;;6.57;3.40;;;;;;;21.41;nan;95152.69;6252380;22;20301;-83
2022/06/20 08:16:13;;;;;;;12.65;3.17;;;;;;;21.12;nan;95102.53;6259988;22;20455;-84
2022/06/20 08:18:39;;;;;;;7.28;2.72;;;;;;;21.94;nan;95180.34;6267757;22;20019;-84
2022/06/20 08:21:38;;;;;;;12.35;3.10;;;;;;;21.89;nan;95192.19;6262101;22;20022;-84
2022/06/20 08:24:09;;;;;;;11.75;2.65;;;;;;;21.98;nan;95186.66;6263625;22;20248;-83
2022/06/20 08:26:45;;;;;;;11.18;2.80;;;;;;;21.78;nan;95136.34;6236821;22;20429;-83
2022/06/20 08:29:36;;;;;;;4.70;2.53;;;;;;;22.21;nan;95184.97;6266492;22;20095;-84
2022/06/20 08:32:19;;;;;;;;;;;;;;;22.06;nan;95184.94;6246466;22;20023;-84
2022/06/20 08:34:59;;;;;;;8.13;2.85;;;;;;;22.15;nan;95190.97;6261330;22;19915;-84
2022/06/20 08:37:40;;;;;;;14.13;2.60;;;;;;;21.88;nan;95138.53;6261628;22;20046;-83
2022/06/20 08:40:40;;;;;;;6.80;2.40;;;;;;;21.79;nan;95121.72;6261784;22;20097;-84
2022/06/20 08:43:44;;;;;;;4.55;2.53;;;;;;;22.14;nan;95175.88;6260128;22;20011;-84
2022/06/20 08:46:37;;;;;;;8.73;2.58;;;;;;;22.17;nan;95176.00;6258633;22;20545;-83
2022/06/20 08:49:28;;;;;;;7.93;2.35;;;;;;;21.60;nan;95076.47;6263437;22;20126;-83
2022/06/20 08:52:06;;;;;;;5.85;2.00;;;;;;;22.36;nan;95177.22;6255166;22;20148;-83
2022/06/20 08:54:50;;;;;;;4.25;1.52;;;;;;;22.43;nan;95174.72;6249224;22;20382;-83
2022/06/20 08:57:35;;;;;;;2.70;1.50;;;;;;;22.12;nan;95121.44;6258948;22;20073;-83
2022/06/20 09:00:10;;;;;;;4.00;2.40;;;;;;;22.48;nan;95177.13;6259232;22;20007;-84
2022/06/20 09:02:57;;;;;;;9.07;2.70;;;;;;;22.58;nan;95163.88;6259599;22;20014;-83
2022/06/20 09:05:42;;;;;;;6.22;2.38;;;;;;;22.22;nan;95110.09;6257634;22;20423;-83
2022/06/20 09:08:56;;;;;;;;;;;;;;;;;;;;;
2022/06/20 09:12:03;;;;;;;4.85;2.15;;;;;;;22.85;nan;95166.84;6278116;22;20034;-84
2022/06/20 09:14:49;;;;;;;4.78;1.98;;;;;;;22.82;nan;95154.03;6276312;22;20020;-85
2022/06/20 09:17:41;;;;;;;9.25;1.83;;;;;;;22.79;nan;95152.81;6276049;22;20015;-83
2022/06/20 09:20:19;;;;;;;4.88;2.20;;;;;;;20.68;nan;94837.53;6246200;22;20054;-83
2022/06/20 09:23:00;;;;;;;6.50;2.55;;;;;;;22.69;nan;95129.00;6262971;22;20024;-84
2022/06/20 09:25:33;;;;;;;5.38;2.45;;;;;;;22.94;nan;95143.91;6262296;22;20046;-83
2022/06/20 09:28:11;;;;;;;5.50;2.72;;;;;;;23.12;nan;95138.06;6261738;22;20007;-84
2022/06/20 09:30:42;;;;;;;6.18;2.10;;;;;;;23.09;nan;95139.59;6264317;22;20075;-83
2022/06/20 09:33:33;;;;;;;;;;;;;;;23.18;nan;95133.97;6263117;22;20431;-84
2022/06/20 09:36:08;;;;;;;3.75;2.10;;;;;;;23.21;nan;95141.38;6261624;22;19941;-83
2022/06/20 09:38:58;;;;;;;6.80;2.40;;;;;;;22.73;nan;95058.81;6261290;22;20028;-85
2022/06/20 09:41:50;;;;;;;7.05;2.00;;;;;;;23.30;nan;95145.44;6259252;22;20435;-84
2022/06/20 09:44:30;;;;;;;8.52;2.38;;;;;;;23.21;nan;95073.72;6238446;22;20015;-83
2022/06/20 09:47:20;;;;;;;8.27;2.70;;;;;;;24.38;nan;95136.31;6265826;22;20011;-83
2022/06/20 09:49:52;;;;;;;4.93;2.60;;;;;;;25.37;nan;95132.38;6264465;22;20015;-83
2022/06/20 09:52:17;;;;;;;4.78;1.67;;;;;;;26.36;nan;95126.50;6264341;22;20003;-83
2022/06/20 09:55:10;;;;;;;7.45;2.35;;;;;;;27.63;nan;95132.03;6264721;22;20095;-84
2022/06/20 09:57:53;;;;;;;6.63;1.92;;;;;;;28.62;nan;95106.91;6264441;22;20506;-83
2022/06/20 10:00:24;;;;;;;5.30;2.22;;;;;;;29.59;nan;95119.25;6265653;22;20012;-83
2022/06/20 10:03:04;;;;;;;;;;;;;;;30.40;nan;95124.28;6264630;22;20031;-83
2022/06/20 10:05:42;;;;;;;6.32;1.88;;;;;;;30.18;nan;95038.88;6259155;22;19915;-83
2022/06/20 10:08:32;;;;;;;5.40;1.35;;;;;;;31.50;nan;95114.34;6261332;22;20008;-83
2022/06/20 10:11:01;;;;;;;4.25;1.80;;;;;;;31.88;nan;95090.38;6261195;22;20062;-84
2022/06/20 10:13:50;;;;;;;4.22;1.40;;;;;;;32.36;nan;95107.34;6259591;22;20016;-83
2022/06/20 10:16:27;;;;;;;6.82;1.50;;;;;;;32.25;nan;95059.31;6265013;22;20060;-83
2022/06/20 10:19:40;;;;;;;4.72;1.60;;;;;;;33.11;nan;95119.88;6266129;22;20019;-84
2022/06/20 10:22:11;;;;;;;5.78;1.42;;;;;;;33.18;nan;95108.75;6229310;22;20011;-83
2022/06/20 10:24:48;;;;;;;3.13;1.60;;;;;;;33.40;nan;95106.41;6264728;22;20103;-83
2022/06/20 10:27:51;;;;;;;6.55;1.73;;;;;;;33.70;nan;95117.97;6261984;22;20364;-83
2022/06/20 10:30:46;;;;;;;6.95;1.63;;;;;;;33.82;nan;95115.78;6262308;22;20012;-83
2022/06/20 10:33:43;;;;;;;3.70;1.90;;;;;;;33.79;nan;95113.91;6255318;22;20007;-83
2022/06/20 10:36:38;;;;;;;4.85;1.80;;;;;;;33.55;nan;95063.69;6204304;22;20011;-83
2022/06/20 10:39:31;;;;;;;3.97;1.75;;;;;;;33.04;nan;95027.34;6260242;22;20026;-83
2022/06/20 10:42:24;;;;;;;4.40;1.60;;;;;;;33.95;nan;95098.19;6260459;22;20035;-84
2022/06/20 10:45:20;;;;;;;7.93;1.67;;;;;;;33.66;nan;95066.97;6260411;22;20012;-83
2022/06/20 10:48:24;;;;;;;13.90;3.55;;;;;;;33.06;nan;95051.66;6264256;22;20312;-83
2022/06/20 10:51:06;;;;;;;6.82;1.80;;;;;;;33.35;nan;95008.72;6264608;22;20043;-83
2022/06/20 10:53:51;;;;;;;4.40;1.63;;;;;;;32.91;nan;95027.22;6263359;22;20093;-83
2022/06/20 10:56:37;;;;;;;2.20;1.63;;;;;;;33.43;nan;95078.06;6263005;22;20039;-83
2022/06/20 10:59:27;;;;;;;2.92;1.60;;;;;;;33.49;nan;95077.13;6261703;22;20335;-83
2022/06/20 11:02:05;;;;;;;5.30;1.95;;;;;;;33.49;nan;95029.66;6262560;22;20016;-84
2022/06/20 11:04:57;;;;;;;2.50;1.55;;;;;;;33.47;nan;95030.06;6260382;22;20016;-84
2022/06/20 11:07:34;;;;;;;4.82;1.40;;;;;;;33.41;nan;95064.75;6259954;22;20011;-84
2022/06/20 11:10:21;;;;;;;2.53;1.88;;;;;;;33.90;nan;95062.16;6262709;22;20047;-84
2022/06/20 11:13:06;;;;;;;4.25;1.52;;;;;;;33.81;nan;95054.50;6258339;22;20007;-84
2022/06/20 11:15:49;;;;;;;3.15;2.13;;;;;;;33.96;nan;95057.72;6263429;22;20532;-84
2022/06/20 11:18:52;;;;;;;6.25;1.30;;;;;;;33.72;nan;95055.06;6264373;22;20011;-83
2022/06/20 11:21:35;;;;;;;5.20;1.42;;;;;;;33.93;nan;95055.81;6268706;22;20038;-84
2022/06/20 11:24:21;;;;;;;3.00;1.60;;;;;;;33.30;nan;95055.94;6268967;22;20019;-84
2022/06/20 11:27:28;;;;;;;2.08;1.40;;;;;;;33.47;nan;95049.31;6266601;22;20524;-83
2022/06/20 11:30:02;;;;;;;4.55;1.48;;;;;;;33.14;nan;95056.59;6244993;22;20039;-84
2022/06/20 11:32:33;;;;;;;2.80;1.08;;;;;;;33.50;nan;95058.66;6270401;22;20008;-84
2022/06/20 11:35:15;;;;;;;2.85;1.30;;;;;;;32.88;nan;94926.41;6270279;22;20395;-84
2022/06/20 11:37:40;;;;;;;4.20;2.05;;;;;;;33.65;nan;95041.44;6268065;22;20016;-84
2022/06/20 11:40:33;;;;;;;3.85;1.30;;;;;;;34.00;nan;95025.41;6264177;22;20033;-84
2022/06/20 11:43:20;;;;;;;6.43;2.00;;;;;;;34.04;nan;95032.38;6267521;22;20075;-83
2022/06/20 11:46:24;;;;;;;1.75;1.50;;;;;;;34.29;nan;95029.06;6269555;22;20455;-83
2022/06/20 11:48:55;;;;;;;2.00;1.42;;;;;;;34.23;nan;95024.50;6263533;22;20014;-83
2022/06/20 11:51:29;;;;;;;3.75;1.83;;;;;;;34.42;nan;95020.88;6265396;22;20018;-83
2022/06/20 11:54:29;;;;;;;2.92;1.30;;;;;;;33.75;nan;94964.69;6267458;22;20011;-83
2022/06/20 11:57:13;;;;;;;1.85;1.33;;;;;;;33.78;nan;94941.84;6265756;22;20370;-84
2022/06/20 12:00:17;;;;;;;5.72;1.27;;;;;;;34.21;nan;94997.38;6265523;22;20011;-84
2022/06/20 12:02:55;;;;;;;3.70;1.73;;;;;;;34.42;nan;95007.09;6262670;22;20012;-83
2022/06/20 12:05:26;;;;;;;3.67;1.60;;;;;;;34.48;nan;95005.41;6265520;22;20012;-83
2022/06/20 12:08:15;;;;;;;3.85;1.40;;;;;;;34.65;nan;95006.13;6265599;22;20418;-84
2022/06/20 12:10:56;;;;;;;4.93;1.25;;;;;;;34.39;nan;94981.25;6221456;22;20011;-84
2022/06/20 12:13:34;;;;;;;3.17;1.58;;;;;;;34.72;nan;95001.25;6267045;22;20012;-84
2022/06/20 12:16:08;;;;;;;5.55;1.60;;;;;;;34.50;nan;94997.47;6265869;22;20018;-83
2022/06/20 12:24:21;;;;;;;5.95;1.48;;;;;;;33.81;nan;94965.72;6268504;22;20014;-84
2022/06/20 12:26:46;;;;;;;3.17;1.40;;;;;;;33.70;nan;94878.72;6266862;22;20484;-84
2022/06/20 12:29:17;;;;;;;4.00;1.55;;;;;;;34.24;nan;94911.25;6270271;22;20007;-85
2022/06/20 12:31:48;;;;;;;3.17;1.20;;;;;;;34.39;nan;94983.22;6268273;22;20110;-84
2022/06/20 12:34:16;;;;;;;5.82;1.50;;;;;;;34.67;nan;94974.22;6270005;22;20007;-85
2022/06/20 12:36:47;;;;;;;8.13;2.08;;;;;;;34.95;nan;94974.66;6268412;22;20361;-83
2022/06/20 12:39:16;;;;;;;3.80;2.05;;;;;;;35.12;nan;94982.44;6268088;22;20431;-83
2022/06/20 12:41:46;;;;;;;3.55;1.30;;;;;;;34.86;nan;94900.94;6267307;22;20011;-84
2022/06/20 12:44:44;;;;;;;7.40;1.73;;;;;;;35.06;nan;94940.09;6266955;22;20137;-84
2022/06/20 12:47:51;;;;;;;3.97;1.95;;;;;;;34.96;nan;94968.72;6218892;22;20008;-83
2022/06/20 12:50:24;;;;;;;3.08;1.40;;;;;;;35.25;nan;94974.22;6120375;23;20013;-83
2022/06/20 12:53:08;;;;;;;4.90;1.75;;;;;;;34.67;nan;94910.09;6252562;22;20141;-84